Terminal Aerodrome Forecast
Issued by NWS

Home | Current Version | Previous Version | Text Only | Print | Product List | Glossary On
Versions: 1 2 3 4 5 6 7 8 9 10 11 12 13
000
FTAK31 PANC 291137
TAFAIL
TAF
PAIL 291137Z 2912/3012 24005KT P6SM SCT100
     FM292100 17010KT P6SM FEW050 BKN120
     FM300100 16010KT P6SM VCSH SCT050 BKN090
     FM300300 19009KT 6SM -SHRA BKN050 OVC080=

USA.gov is the U.S. government's official web portal to all federal, state and local government web resources and services.